createdAt,value
2022-12-08T00:01:34.104Z,9.47
2022-12-08T00:04:03.559Z,12.90
2022-12-08T00:06:55.160Z,10.90
2022-12-08T00:09:32.020Z,10.13
2022-12-08T00:12:11.059Z,9.60
2022-12-08T00:14:47.524Z,11.47
2022-12-08T00:17:16.841Z,9.53
2022-12-08T00:19:45.208Z,8.97
2022-12-08T00:22:14.314Z,11.90
2022-12-08T00:24:44.492Z,7.37
2022-12-08T00:27:14.830Z,9.63
2022-12-08T00:29:44.961Z,8.17
2022-12-08T00:32:12.692Z,8.33
2022-12-08T00:34:40.111Z,6.60
2022-12-08T00:37:07.574Z,7.60
2022-12-08T00:39:34.876Z,6.87
2022-12-08T00:42:14.154Z,7.73
2022-12-08T00:44:46.298Z,8.40
2022-12-08T00:47:14.743Z,6.23
2022-12-08T00:49:42.494Z,6.00
2022-12-08T00:52:09.907Z,8.70
2022-12-08T00:54:37.670Z,9.17
2022-12-08T00:57:05.364Z,6.70
2022-12-08T00:59:33.237Z,7.23
2022-12-08T01:02:00.621Z,8.50
2022-12-08T01:04:28.093Z,6.83
2022-12-08T01:06:55.380Z,7.17
2022-12-08T01:09:23.116Z,9.77
2022-12-08T01:11:50.730Z,9.07
2022-12-08T01:14:18.030Z,6.67
2022-12-08T01:16:45.732Z,8.53
2022-12-08T01:19:15.124Z,8.83
2022-12-08T01:21:43.367Z,7.93
2022-12-08T01:24:16.959Z,8.50
2022-12-08T01:26:44.646Z,7.73
2022-12-08T01:29:12.676Z,8.97
2022-12-08T01:31:40.769Z,6.33
2022-12-08T01:34:09.072Z,11.23
2022-12-08T01:36:37.602Z,8.17
2022-12-08T01:39:07.447Z,7.90
2022-12-08T01:41:36.529Z,6.13
2022-12-08T01:44:13.122Z,7.53
2022-12-08T01:46:42.714Z,7.43
2022-12-08T01:49:10.184Z,11.13
2022-12-08T01:51:55.803Z,8.67
2022-12-08T01:54:27.421Z,8.07
2022-12-08T01:57:03.309Z,9.93
2022-12-08T01:59:34.137Z,8.87
2022-12-08T02:02:01.954Z,8.17
2022-12-08T02:04:29.206Z,7.63
2022-12-08T02:06:57.093Z,7.20
2022-12-08T02:09:25.318Z,5.87
2022-12-08T02:11:56.825Z,7.17
2022-12-08T02:14:24.814Z,7.00
2022-12-08T02:17:03.632Z,8.87
2022-12-08T02:19:48.926Z,9.17
2022-12-08T02:22:24.835Z,12.00
2022-12-08T02:25:17.000Z,16.53
2022-12-08T02:28:23.742Z,18.57
2022-12-08T02:30:54.212Z,24.87
2022-12-08T02:33:46.302Z,23.07
2022-12-08T02:36:39.702Z,28.53
2022-12-08T02:39:28.907Z,34.13
2022-12-08T02:42:33.984Z,31.23
2022-12-08T02:45:08.103Z,30.10
2022-12-08T02:47:35.876Z,27.50
2022-12-08T02:50:03.889Z,27.53
2022-12-08T02:52:31.344Z,21.10
2022-12-08T02:55:28.258Z,27.10
2022-12-08T02:58:13.872Z,54.73
2022-12-08T03:01:19.663Z,38.73
2022-12-08T03:03:52.305Z,45.10
2022-12-08T03:06:46.883Z,21.70
2022-12-08T03:09:34.964Z,25.30
2022-12-08T03:12:14.505Z,23.73
2022-12-08T03:14:47.134Z,24.93
2022-12-08T03:17:16.288Z,25.37
2022-12-08T03:19:46.018Z,24.97
2022-12-08T03:22:16.879Z,28.97
2022-12-08T03:24:46.566Z,24.03
2022-12-08T03:27:19.850Z,18.97
2022-12-08T03:29:48.850Z,17.57
2022-12-08T03:32:36.007Z,21.77
2022-12-08T03:35:11.595Z,19.77
2022-12-08T03:37:40.259Z,18.50
2022-12-08T03:40:10.123Z,17.87
2022-12-08T03:42:37.619Z,15.67
2022-12-08T03:45:06.232Z,12.53
2022-12-08T03:47:34.174Z,15.83
2022-12-08T03:50:01.852Z,14.90
2022-12-08T03:52:29.421Z,12.63
2022-12-08T03:54:56.763Z,14.93
2022-12-08T03:57:23.995Z,15.87
2022-12-08T03:59:52.235Z,14.10
2022-12-08T04:02:19.645Z,12.23
2022-12-08T04:04:47.329Z,13.87
2022-12-08T04:07:14.587Z,17.73
2022-12-08T04:09:42.444Z,17.67
2022-12-08T04:12:10.207Z,18.70
2022-12-08T04:14:40.557Z,15.83
2022-12-08T04:17:08.129Z,13.90
2022-12-08T04:19:37.148Z,18.67
2022-12-08T04:22:04.514Z,24.10
2022-12-08T04:24:31.758Z,21.97
2022-12-08T04:26:59.188Z,26.23
2022-12-08T04:29:26.436Z,21.30
2022-12-08T04:31:56.641Z,19.87
2022-12-08T04:34:24.046Z,26.90
2022-12-08T04:36:51.334Z,21.03
2022-12-08T04:39:18.685Z,21.83
2022-12-08T04:41:46.279Z,31.67
2022-12-08T04:44:13.843Z,65.93
2022-12-08T04:46:43.650Z,34.37
2022-12-08T04:49:11.520Z,30.97
2022-12-08T04:51:39.321Z,35.10
2022-12-08T04:54:07.036Z,61.07
2022-12-08T04:56:34.482Z,37.73
2022-12-08T04:59:01.890Z,35.73
2022-12-08T05:01:29.251Z,66.77
2022-12-08T05:03:57.147Z,57.90
2022-12-08T05:06:24.789Z,49.33
2022-12-08T05:08:52.210Z,37.57
2022-12-08T05:11:19.973Z,30.23
2022-12-08T05:13:47.641Z,25.10
2022-12-08T05:16:16.778Z,22.17
2022-12-08T05:18:48.746Z,23.57
2022-12-08T05:21:16.017Z,15.73
2022-12-08T05:23:44.480Z,23.73
2022-12-08T05:26:11.843Z,41.43
2022-12-08T05:28:41.862Z,87.10
2022-12-08T05:31:11.648Z,37.13
2022-12-08T05:33:39.337Z,30.17
2022-12-08T05:36:07.890Z,38.97
2022-12-08T05:38:35.263Z,45.07
2022-12-08T05:41:04.585Z,53.60
2022-12-08T05:43:31.863Z,58.17
2022-12-08T05:45:59.601Z,43.90
2022-12-08T05:48:27.255Z,35.20
2022-12-08T05:50:54.497Z,55.50
2022-12-08T05:53:22.106Z,25.77
2022-12-08T05:55:49.385Z,23.67
2022-12-08T05:58:19.176Z,26.13
2022-12-08T06:00:51.166Z,35.87
2022-12-08T06:03:20.114Z,44.87
2022-12-08T06:05:48.151Z,38.47
2022-12-08T06:08:16.784Z,41.47
2022-12-08T06:10:45.419Z,38.63
2022-12-08T06:13:13.467Z,32.03
2022-12-08T06:15:41.761Z,31.77
2022-12-08T06:18:10.340Z,29.03
2022-12-08T06:20:37.895Z,30.33
2022-12-08T06:23:05.785Z,31.03
2022-12-08T06:25:33.018Z,33.20
2022-12-08T06:28:00.348Z,62.00
2022-12-08T06:30:29.380Z,59.60
2022-12-08T06:32:56.928Z,58.80
2022-12-08T06:35:24.565Z,39.07
2022-12-08T06:37:52.029Z,38.33
2022-12-08T06:40:19.422Z,44.97
2022-12-08T06:42:49.488Z,62.93
2022-12-08T06:45:18.296Z,219.93
2022-12-08T06:47:45.641Z,143.20
2022-12-08T06:50:14.250Z,150.00
2022-12-08T06:52:54.295Z,240.50
2022-12-08T06:55:42.997Z,128.47
2022-12-08T06:58:12.489Z,183.97
2022-12-08T07:00:40.616Z,171.07
2022-12-08T07:03:10.730Z,58.63
2022-12-08T07:05:39.342Z,32.93
2022-12-08T07:08:08.615Z,33.00
2022-12-08T07:10:36.503Z,34.00
2022-12-08T07:13:04.209Z,38.00
2022-12-08T07:15:31.615Z,22.50
2022-12-08T07:18:00.258Z,29.93
2022-12-08T07:20:28.476Z,26.60
2022-12-08T07:22:56.397Z,29.43
2022-12-08T07:25:27.338Z,83.00
2022-12-08T07:27:54.637Z,144.70
2022-12-08T07:30:22.280Z,71.57
2022-12-08T07:32:49.887Z,127.20
2022-12-08T07:35:17.300Z,100.63
2022-12-08T07:37:44.590Z,56.03
2022-12-08T07:40:13.042Z,55.33
2022-12-08T07:42:40.393Z,36.57
2022-12-08T07:45:08.343Z,31.07
2022-12-08T07:47:35.669Z,33.57
2022-12-08T07:50:03.400Z,35.37
2022-12-08T07:52:31.382Z,26.73
2022-12-08T07:54:58.865Z,26.73
2022-12-08T07:57:26.265Z,26.97
2022-12-08T07:59:53.552Z,31.20
2022-12-08T08:02:24.951Z,40.00
2022-12-08T08:04:53.845Z,65.57
2022-12-08T08:07:21.501Z,38.67
2022-12-08T08:09:48.943Z,78.17
2022-12-08T08:12:31.236Z,57.63
2022-12-08T08:15:00.518Z,30.00
2022-12-08T08:17:28.883Z,36.00
2022-12-08T08:19:56.377Z,20.83
2022-12-08T08:22:24.659Z,36.13
2022-12-08T08:24:52.022Z,35.27
2022-12-08T08:27:19.558Z,22.73
2022-12-08T08:29:47.035Z,25.60
2022-12-08T08:32:14.259Z,21.23
2022-12-08T08:34:41.538Z,23.50
2022-12-08T08:37:09.054Z,20.87
2022-12-08T08:39:36.576Z,22.20
2022-12-08T08:42:04.108Z,22.27
2022-12-08T08:44:31.435Z,49.40
2022-12-08T08:46:58.906Z,59.50
2022-12-08T08:49:26.324Z,49.23
2022-12-08T08:51:53.538Z,45.23
2022-12-08T08:54:20.900Z,36.93
2022-12-08T08:56:48.715Z,28.53
2022-12-08T08:59:15.989Z,32.73
2022-12-08T09:01:43.292Z,26.83
2022-12-08T09:04:11.104Z,25.90
2022-12-08T09:06:38.541Z,28.37
2022-12-08T09:09:06.286Z,25.73
2022-12-08T09:11:36.760Z,22.93
2022-12-08T09:14:04.427Z,25.07
2022-12-08T09:16:35.057Z,21.00
2022-12-08T09:19:04.988Z,21.30
2022-12-08T09:21:32.303Z,19.57
2022-12-08T09:23:59.890Z,21.07
2022-12-08T09:26:28.900Z,21.17
2022-12-08T09:28:57.396Z,17.93
2022-12-08T09:31:25.446Z,18.47
2022-12-08T09:33:53.440Z,23.40
2022-12-08T09:36:21.362Z,22.67
2022-12-08T09:38:49.453Z,22.33
2022-12-08T09:41:56.947Z,20.43
2022-12-08T09:44:44.356Z,22.20
2022-12-08T09:47:47.371Z,18.60
2022-12-08T09:50:35.536Z,14.70
2022-12-08T09:53:50.113Z,14.83
2022-12-08T09:56:22.991Z,19.07
2022-12-08T09:59:08.864Z,22.03
2022-12-08T10:01:42.147Z,21.70
2022-12-08T10:04:45.101Z,20.57
2022-12-08T10:07:23.917Z,21.53
2022-12-08T10:10:18.904Z,25.03
2022-12-08T10:13:02.674Z,22.27
2022-12-08T10:15:44.495Z,23.73
2022-12-08T10:18:23.377Z,45.47
2022-12-08T10:20:53.684Z,22.17
2022-12-08T10:23:51.677Z,51.17
2022-12-08T10:26:21.881Z,19.57
2022-12-08T10:28:49.827Z,19.93
2022-12-08T10:31:23.375Z,17.07
2022-12-08T10:33:59.615Z,16.30
2022-12-08T10:36:51.173Z,17.90
2022-12-08T10:39:32.025Z,20.20
2022-12-08T10:42:23.050Z,19.00
2022-12-08T10:45:09.212Z,21.17
2022-12-08T10:47:43.702Z,20.97
2022-12-08T10:50:45.117Z,20.47
2022-12-08T10:53:25.443Z,20.93
2022-12-08T10:56:14.026Z,25.40
2022-12-08T10:58:44.012Z,25.63
2022-12-08T11:01:15.717Z,65.47
2022-12-08T11:03:54.700Z,32.87
2022-12-08T11:06:30.731Z,25.93
2022-12-08T11:09:22.244Z,25.27
2022-12-08T11:11:59.257Z,22.33
2022-12-08T11:14:33.557Z,18.43
2022-12-08T11:17:08.559Z,20.40
2022-12-08T11:19:55.543Z,24.90
2022-12-08T11:22:29.929Z,108.23
2022-12-08T11:25:07.826Z,48.10
2022-12-08T11:27:37.295Z,34.67
2022-12-08T11:30:14.811Z,47.60
2022-12-08T11:32:45.087Z,121.37
2022-12-08T11:35:32.512Z,64.67
2022-12-08T11:38:21.096Z,77.33
2022-12-08T11:40:54.083Z,91.00
2022-12-08T11:43:34.093Z,77.40
2022-12-08T11:46:16.079Z,56.20
2022-12-08T11:49:12.675Z,87.43
2022-12-08T11:52:00.483Z,95.30
2022-12-08T11:54:37.285Z,77.90
2022-12-08T11:57:09.048Z,65.20
2022-12-08T11:59:44.814Z,96.60
2022-12-08T12:02:34.745Z,38.17
2022-12-08T12:05:09.298Z,76.53
2022-12-08T12:08:01.313Z,78.93
2022-12-08T12:10:43.545Z,83.60
2022-12-08T12:13:22.364Z,57.83
2022-12-08T12:16:05.401Z,73.47
2022-12-08T12:18:47.412Z,53.13
2022-12-08T12:21:20.626Z,42.23
2022-12-08T12:23:48.154Z,49.97
2022-12-08T12:26:56.467Z,44.67
2022-12-08T12:29:26.808Z,34.50
2022-12-08T12:32:01.579Z,32.53
2022-12-08T12:34:37.765Z,47.50
2022-12-08T12:37:22.046Z,45.60
2022-12-08T12:40:07.601Z,57.23
2022-12-08T12:42:43.192Z,78.77
2022-12-08T12:45:22.718Z,63.40
2022-12-08T12:47:57.675Z,44.43
2022-12-08T12:50:33.959Z,63.60
2022-12-08T12:53:27.245Z,51.30
2022-12-08T12:55:57.829Z,47.27
2022-12-08T12:58:31.092Z,60.17
2022-12-08T13:01:22.024Z,44.27
2022-12-08T13:04:02.833Z,71.73
2022-12-08T13:06:49.662Z,59.67
2022-12-08T13:09:30.099Z,31.67
2022-12-08T13:12:01.731Z,25.90
2022-12-08T13:14:32.333Z,28.60
2022-12-08T13:17:02.603Z,16.00
2022-12-08T13:19:32.708Z,20.43
2022-12-08T13:22:00.809Z,21.37
2022-12-08T13:24:30.480Z,29.10
2022-12-08T13:27:07.105Z,53.90
2022-12-08T13:29:38.836Z,333.67
2022-12-08T13:32:30.675Z,78.67
2022-12-08T13:35:04.664Z,20.27
2022-12-08T13:37:53.945Z,56.07
2022-12-08T13:40:30.740Z,33.13
2022-12-08T13:43:15.588Z,31.13
2022-12-08T13:46:57.540Z,27.37
2022-12-08T13:49:41.924Z,27.37
2022-12-08T13:55:13.596Z,21.03
2022-12-08T13:57:34.241Z,21.87
2022-12-08T14:00:19.290Z,20.47
2022-12-08T14:02:49.056Z,25.50
2022-12-08T14:05:35.221Z,29.43
2022-12-08T14:09:06.947Z,23.13
2022-12-08T14:11:39.185Z,29.07
2022-12-08T14:14:53.654Z,32.77
2022-12-08T14:17:13.535Z,32.07
2022-12-08T14:19:44.531Z,46.13
2022-12-08T14:22:17.688Z,48.07
2022-12-08T14:24:53.722Z,29.40
2022-12-08T14:27:25.042Z,32.17
2022-12-08T14:30:08.378Z,31.87
2022-12-08T14:32:43.877Z,39.63
2022-12-08T14:35:15.850Z,49.87
2022-12-08T14:37:51.833Z,77.23
2022-12-08T14:40:23.142Z,58.13
2022-12-08T14:43:10.610Z,54.77
2022-12-08T14:45:44.154Z,45.27
2022-12-08T14:48:36.665Z,37.47
2022-12-08T14:51:04.244Z,36.07
2022-12-08T14:53:38.293Z,40.73
2022-12-08T14:56:23.393Z,59.07
2022-12-08T14:59:23.360Z,49.37
2022-12-08T15:01:53.870Z,42.90
2022-12-08T15:04:27.380Z,47.33
2022-12-08T15:07:17.054Z,56.07
2022-12-08T15:09:48.741Z,47.50
2022-12-08T15:12:16.179Z,62.37
2022-12-08T15:14:56.460Z,54.60
2022-12-08T15:17:46.954Z,95.57
2022-12-08T15:20:34.806Z,143.87
2022-12-08T15:23:03.102Z,120.47
2022-12-08T15:25:30.619Z,94.97
2022-12-08T15:27:58.418Z,90.20
2022-12-08T15:30:28.952Z,75.90
2022-12-08T15:32:56.676Z,77.03
2022-12-08T15:35:23.984Z,91.50
2022-12-08T15:37:51.399Z,82.90
2022-12-08T15:40:21.636Z,131.87
2022-12-08T15:42:49.174Z,201.27
2022-12-08T15:45:23.872Z,181.83
2022-12-08T15:47:51.096Z,105.10
2022-12-08T15:50:21.252Z,91.27
2022-12-08T15:52:49.699Z,113.40
2022-12-08T15:55:22.307Z,137.50
2022-12-08T15:58:44.998Z,131.17
2022-12-08T16:00:52.432Z,128.07
2022-12-08T16:04:19.925Z,129.50
2022-12-08T16:09:36.802Z,129.23
2022-12-08T16:12:24.653Z,155.83
2022-12-08T16:17:41.088Z,143.20
2022-12-08T16:20:13.890Z,151.97
2022-12-08T16:22:56.355Z,171.80
2022-12-08T16:25:36.359Z,228.50
2022-12-08T16:28:45.384Z,278.87
2022-12-08T16:31:01.611Z,289.40
2022-12-08T16:33:32.306Z,262.07
2022-12-08T16:36:00.956Z,346.80
2022-12-08T16:38:28.325Z,257.87
2022-12-08T16:41:14.208Z,182.37
2022-12-08T16:43:41.643Z,134.03
2022-12-08T16:46:19.295Z,129.40
2022-12-08T16:48:46.663Z,155.63
2022-12-08T16:51:23.433Z,83.97
2022-12-08T16:53:54.609Z,93.57
2022-12-08T16:56:26.372Z,118.27
2022-12-08T16:58:59.537Z,116.53
2022-12-08T17:01:27.197Z,204.60
2022-12-08T17:04:30.010Z,327.30
2022-12-08T17:06:42.180Z,249.67
2022-12-08T17:09:09.470Z,239.03
2022-12-08T17:11:42.949Z,200.90
2022-12-08T17:14:12.798Z,261.90
2022-12-08T17:16:40.837Z,238.57
2022-12-08T17:19:08.856Z,208.70
2022-12-08T17:21:36.874Z,207.67
2022-12-08T17:24:05.163Z,166.97
2022-12-08T17:26:32.679Z,154.93
2022-12-08T17:29:01.872Z,150.40
2022-12-08T17:31:31.461Z,159.67
2022-12-08T17:34:04.342Z,162.00
2022-12-08T17:36:32.102Z,150.13
2022-12-08T17:39:01.450Z,173.97
2022-12-08T17:41:29.801Z,256.40
2022-12-08T17:43:57.439Z,319.03
2022-12-08T17:46:25.294Z,318.20
2022-12-08T17:48:53.606Z,353.93
2022-12-08T17:51:21.655Z,289.23
2022-12-08T17:53:54.439Z,255.27
2022-12-08T17:56:22.171Z,302.23
2022-12-08T17:58:54.355Z,232.83
2022-12-08T18:01:23.525Z,110.20
2022-12-08T18:03:51.337Z,92.40
2022-12-08T18:06:21.150Z,212.37
2022-12-08T18:08:48.603Z,276.37
2022-12-08T18:11:19.402Z,185.50
2022-12-08T18:13:48.375Z,138.63
2022-12-08T18:16:17.176Z,136.03
2022-12-08T18:18:44.807Z,126.00
2022-12-08T18:21:12.401Z,104.23
2022-12-08T18:23:41.306Z,139.17
2022-12-08T18:26:12.091Z,194.27
2022-12-08T18:28:39.977Z,243.53
2022-12-08T18:31:16.687Z,188.73
2022-12-08T18:33:45.650Z,158.40
2022-12-08T18:36:19.125Z,110.60
2022-12-08T18:38:46.804Z,113.23
2022-12-08T18:41:17.374Z,94.80
2022-12-08T18:43:44.883Z,101.70
2022-12-08T18:46:14.387Z,84.30
2022-12-08T18:48:44.530Z,377.43
2022-12-08T18:51:13.878Z,350.83
2022-12-08T18:53:41.651Z,224.20
2022-12-08T18:56:09.360Z,372.17
2022-12-08T18:58:36.635Z,258.73
2022-12-08T19:01:04.339Z,162.40
2022-12-08T19:03:31.943Z,123.90
2022-12-08T19:06:08.827Z,118.90
2022-12-08T19:08:36.363Z,82.07
2022-12-08T19:11:03.781Z,75.00
2022-12-08T19:13:31.117Z,70.47
2022-12-08T19:15:58.399Z,85.77
2022-12-08T19:18:25.839Z,114.53
2022-12-08T19:20:56.999Z,176.77
2022-12-08T19:23:24.403Z,173.80
2022-12-08T19:25:55.043Z,160.03
2022-12-08T19:28:23.471Z,214.30
2022-12-08T19:30:52.496Z,134.27
2022-12-08T19:33:20.319Z,129.43
2022-12-08T19:35:52.658Z,161.17
2022-12-08T19:38:20.538Z,109.70
2022-12-08T19:41:06.412Z,142.13
2022-12-08T19:43:52.139Z,123.53
2022-12-08T19:46:20.598Z,144.57
2022-12-08T19:48:48.209Z,113.60
2022-12-08T19:51:15.612Z,92.67
2022-12-08T19:53:47.380Z,123.57
2022-12-08T19:56:15.188Z,131.47
2022-12-08T19:58:42.521Z,144.17
2022-12-08T20:01:10.051Z,148.13
2022-12-08T20:03:37.664Z,149.03
2022-12-08T20:06:05.271Z,120.90
2022-12-08T20:08:32.711Z,93.63
2022-12-08T20:11:00.687Z,79.57
2022-12-08T20:13:46.085Z,103.10
2022-12-08T20:16:14.594Z,218.73
2022-12-08T20:18:42.819Z,254.47
2022-12-08T20:21:12.465Z,354.17
2022-12-08T20:23:43.256Z,111.43
2022-12-08T20:26:15.255Z,105.33
2022-12-08T20:28:42.538Z,100.50
2022-12-08T20:31:21.994Z,86.80
2022-12-08T20:33:49.756Z,81.43
2022-12-08T20:36:19.335Z,79.97
2022-12-08T20:38:48.762Z,82.57
2022-12-08T20:41:17.795Z,99.07
2022-12-08T20:43:46.897Z,154.60
2022-12-08T20:46:17.805Z,144.40
2022-12-08T20:48:45.602Z,144.97
2022-12-08T20:51:15.023Z,149.23
2022-12-08T20:53:42.536Z,235.27
2022-12-08T20:56:16.038Z,190.20
2022-12-08T20:58:43.792Z,262.30
2022-12-08T21:01:13.258Z,231.43
2022-12-08T21:03:41.444Z,197.77
2022-12-08T21:06:09.252Z,165.50
2022-12-08T21:08:37.205Z,166.47
2022-12-08T21:11:06.501Z,158.70
2022-12-08T21:13:34.298Z,156.60
2022-12-08T21:16:01.955Z,150.00
2022-12-08T21:18:32.171Z,153.30
2022-12-08T21:21:07.718Z,140.57
2022-12-08T21:23:35.915Z,150.13
2022-12-08T21:26:03.517Z,175.20
2022-12-08T21:28:30.976Z,256.60
2022-12-08T21:30:58.319Z,232.53
2022-12-08T21:33:25.822Z,241.30
2022-12-08T21:36:02.874Z,289.73
2022-12-08T21:38:30.384Z,157.27
2022-12-08T21:41:03.181Z,141.20
2022-12-08T21:43:31.326Z,161.97
2022-12-08T21:45:58.937Z,221.53
2022-12-08T21:48:29.696Z,207.80
2022-12-08T21:50:57.572Z,177.97
2022-12-08T21:53:28.442Z,188.97
2022-12-08T21:55:55.717Z,168.40
2022-12-08T21:58:22.973Z,165.70
2022-12-08T22:00:50.606Z,168.10
2022-12-08T22:03:18.329Z,180.10
2022-12-08T22:05:46.038Z,196.23
2022-12-08T22:08:13.719Z,216.33
2022-12-08T22:10:41.380Z,204.20
2022-12-08T22:13:08.957Z,240.57
2022-12-08T22:15:36.383Z,236.60
2022-12-08T22:18:04.329Z,353.30
2022-12-08T22:20:31.817Z,266.93
2022-12-08T22:22:59.364Z,280.87
2022-12-08T22:25:29.854Z,235.87
2022-12-08T22:27:57.437Z,238.20
2022-12-08T22:30:25.099Z,204.17
2022-12-08T22:32:52.987Z,197.70
2022-12-08T22:35:20.986Z,182.07
2022-12-08T22:37:52.580Z,106.60
2022-12-08T22:40:20.154Z,172.67
2022-12-08T22:42:47.737Z,158.90
2022-12-08T22:45:15.641Z,171.77
2022-12-08T22:47:43.372Z,173.53
2022-12-08T22:50:11.526Z,230.13
2022-12-08T22:52:39.182Z,119.40
2022-12-08T22:55:07.466Z,86.07
2022-12-08T22:57:34.835Z,96.50
2022-12-08T23:00:02.700Z,96.23
2022-12-08T23:02:30.146Z,84.33
2022-12-08T23:04:57.870Z,81.77
2022-12-08T23:07:25.270Z,73.40
2022-12-08T23:09:52.826Z,82.57
2022-12-08T23:12:20.500Z,101.00
2022-12-08T23:14:48.354Z,129.23
2022-12-08T23:17:15.803Z,106.80
2022-12-08T23:19:43.227Z,101.40
2022-12-08T23:22:10.553Z,76.20
2022-12-08T23:24:38.096Z,76.60
2022-12-08T23:27:05.544Z,86.03
2022-12-08T23:30:22.738Z,86.87
2022-12-08T23:32:50.253Z,74.43
2022-12-08T23:35:17.936Z,72.17
2022-12-08T23:37:45.478Z,72.97
2022-12-08T23:40:13.001Z,75.27
2022-12-08T23:42:40.595Z,78.67
2022-12-08T23:45:09.041Z,70.37
2022-12-08T23:47:37.049Z,73.63
2022-12-08T23:50:05.535Z,86.73
2022-12-08T23:52:33.323Z,82.23
2022-12-08T23:55:00.928Z,86.30
2022-12-08T23:57:28.322Z,85.30
2022-12-08T23:59:55.526Z,79.43
